Time;durP1;ratioP1;P1;durP2;ratioP2;P2;SDS_P1;SDS_P2;PMS_P1;PMS_P2;Temp;Humidity;BMP_temperature;BMP_pressure;BME280_temperature;BME280_humidity;BME280_pressure;Samples;Min_cycle;Max_cycle;Signal;HPM_P1;HPM_P2
2022/04/22 00:01:29;;;;;;;1.83;1.73;;;;;;;7.09;100.00;100320.69;5100791;28;20110;-52
2022/04/22 00:03:55;;;;;;;4.75;1.40;;;;;;;7.08;100.00;100319.88;5094880;28;20056;-47
2022/04/22 00:06:21;;;;;;;2.53;1.88;;;;;;;7.08;100.00;100324.31;5097741;28;20023;-49
2022/04/22 00:08:46;;;;;;;2.45;1.65;;;;;;;7.04;100.00;100318.56;5096348;28;20035;-47
2022/04/22 00:11:30;;;;;;;5.00;1.67;;;;;;;7.04;100.00;100310.63;5092159;28;20035;-45
2022/04/22 00:13:57;;;;;;;7.35;1.48;;;;;;;7.02;100.00;100304.72;5090418;28;20028;-47
2022/04/22 00:16:24;;;;;;;3.42;1.48;;;;;;;6.96;100.00;100303.59;5091516;28;20032;-48
2022/04/22 00:18:49;;;;;;;2.90;1.95;;;;;;;6.93;100.00;100308.41;5093848;28;20066;-46
2022/04/22 00:21:14;;;;;;;6.25;2.90;;;;;;;6.91;100.00;100305.09;5097679;28;20618;-48
2022/04/22 00:23:40;;;;;;;7.20;1.80;;;;;;;6.91;100.00;100305.09;5097416;28;20392;-49
2022/04/22 00:26:05;;;;;;;3.38;1.67;;;;;;;6.92;100.00;100298.84;5095520;28;20020;-53
2022/04/22 00:28:31;;;;;;;2.70;1.30;;;;;;;6.94;100.00;100299.50;5091840;28;20036;-48
2022/04/22 00:30:56;;;;;;;3.05;1.38;;;;;;;6.94;100.00;100294.22;5096205;28;20464;-48
2022/04/22 00:33:22;;;;;;;4.18;1.65;;;;;;;6.97;100.00;100296.53;5095242;28;20063;-48
2022/04/22 00:35:48;;;;;;;3.75;2.47;;;;;;;7.00;100.00;100293.53;5095457;28;20023;-48
2022/04/22 00:38:14;;;;;;;2.38;1.35;;;;;;;7.01;100.00;100303.09;5097117;28;20097;-52
2022/04/22 00:40:39;;;;;;;4.38;1.42;;;;;;;7.05;100.00;100283.31;5096120;28;20032;-46
2022/04/22 00:43:22;;;;;;;5.43;1.17;;;;;;;7.03;100.00;100293.19;5092789;28;20024;-46
2022/04/22 00:45:48;;;;;;;2.70;1.27;;;;;;;7.02;100.00;100288.09;5088960;28;20039;-47
2022/04/22 00:48:15;;;;;;;3.42;1.77;;;;;;;7.00;100.00;100283.00;5091521;28;20138;-47
2022/04/22 00:50:41;;;;;;;2.35;1.80;;;;;;;6.94;100.00;100286.31;5094876;28;20548;-47
2022/04/22 00:53:07;;;;;;;7.53;2.00;;;;;;;6.91;100.00;100276.94;5090748;28;20063;-49
2022/04/22 00:55:35;;;;;;;2.95;1.60;;;;;;;6.96;100.00;100274.59;5093363;28;20027;-47
2022/04/22 00:58:01;;;;;;;3.63;2.08;;;;;;;6.91;100.00;100270.84;5089081;28;20024;-47
2022/04/22 01:00:27;;;;;;;4.65;1.75;;;;;;;6.92;100.00;100269.88;5092854;28;20489;-46
2022/04/22 01:02:52;;;;;;;5.82;1.73;;;;;;;6.97;100.00;100255.16;5089515;28;20039;-48
2022/04/22 01:10:45;;;;;;;2.40;1.90;;;;;;;7.01;100.00;100253.00;5101255;28;20061;-51
2022/04/22 01:13:10;;;;;;;3.13;1.80;;;;;;;7.05;100.00;100249.03;5096791;28;20536;-49
2022/04/22 01:15:36;;;;;;;11.18;2.70;;;;;;;7.09;100.00;100246.84;5094157;28;20105;-49
2022/04/22 01:18:02;;;;;;;2.20;2.00;;;;;;;7.07;100.00;100241.75;5091749;28;20165;-46
2022/04/22 01:20:28;;;;;;;6.18;1.67;;;;;;;7.06;100.00;100250.66;5096835;28;20121;-48
2022/04/22 01:22:53;;;;;;;3.38;1.40;;;;;;;7.05;100.00;100256.94;5100815;28;20032;-50
2022/04/22 01:25:18;;;;;;;3.47;1.55;;;;;;;7.01;100.00;100237.19;5097209;28;20020;-50
2022/04/22 01:27:49;;;;;;;7.97;1.30;;;;;;;6.94;100.00;100244.97;5095159;28;20091;-48
2022/04/22 01:30:14;;;;;;;6.28;1.92;;;;;;;6.94;100.00;100249.41;5095703;28;20042;-51
2022/04/22 01:32:41;;;;;;;3.28;1.65;;;;;;;6.92;100.00;100249.59;5093286;28;20392;-47
2022/04/22 01:35:06;;;;;;;4.38;1.85;;;;;;;6.87;100.00;100237.94;5099322;28;20097;-47
2022/04/22 01:37:32;;;;;;;5.18;2.10;;;;;;;6.82;100.00;100237.63;5088536;28;20468;-45
2022/04/22 01:39:58;;;;;;;6.35;2.70;;;;;;;6.79;100.00;100244.06;5094320;28;20388;-50
2022/04/22 01:42:23;;;;;;;5.93;2.47;;;;;;;6.76;100.00;100239.13;5095922;28;20099;-48
2022/04/22 01:44:49;;;;;;;3.92;2.33;;;;;;;6.75;100.00;100238.28;5103827;28;20185;-49
2022/04/22 01:47:15;;;;;;;4.22;1.88;;;;;;;6.74;100.00;100241.94;5098675;28;20028;-46
2022/04/22 01:49:40;;;;;;;5.00;1.95;;;;;;;6.76;100.00;100237.31;5096556;28;20020;-46
2022/04/22 01:52:07;;;;;;;8.75;2.08;;;;;;;6.76;100.00;100239.13;5102339;28;20038;-45
2022/04/22 01:54:32;;;;;;;8.40;2.13;;;;;;;6.76;100.00;100239.97;5101537;28;20104;-49
2022/04/22 01:56:57;;;;;;;7.45;2.13;;;;;;;6.78;100.00;100232.69;5095774;28;20185;-47
2022/04/22 01:59:23;;;;;;;3.92;2.30;;;;;;;6.76;100.00;100229.41;5112897;28;20023;-48
2022/04/22 02:01:48;;;;;;;8.45;3.63;;;;;;;6.71;100.00;100223.84;5099465;28;20028;-51
2022/04/22 02:04:13;;;;;;;6.53;2.90;;;;;;;6.67;100.00;100222.53;5096153;28;20127;-50
2022/04/22 02:06:39;;;;;;;2.50;2.15;;;;;;;6.62;100.00;100231.94;5080564;28;20063;-48
2022/04/22 02:09:04;;;;;;;5.43;2.22;;;;;;;6.61;100.00;100241.66;5105358;28;20038;-48
2022/04/22 02:11:29;;;;;;;2.83;2.33;;;;;;;6.62;100.00;100232.75;5103910;28;20110;-46
2022/04/22 02:13:55;;;;;;;3.17;2.13;;;;;;;6.65;100.00;100231.59;5108187;28;20043;-45
2022/04/22 02:16:20;;;;;;;8.80;3.40;;;;;;;6.69;100.00;100225.00;5112696;28;20032;-53
2022/04/22 02:18:45;;;;;;;10.80;5.22;;;;;;;6.75;100.00;100222.50;5100553;28;20035;-48
2022/04/22 02:21:11;;;;;;;4.13;2.35;;;;;;;6.78;100.00;100222.13;5097981;28;20498;-50
2022/04/22 02:23:37;;;;;;;6.18;2.88;;;;;;;6.81;100.00;100220.16;5099730;28;20030;-50
2022/04/22 02:26:04;;;;;;;7.60;3.42;;;;;;;6.83;100.00;100218.19;5088502;28;20118;-48
2022/04/22 02:28:32;;;;;;;5.88;3.03;;;;;;;6.80;100.00;100218.53;5099720;28;20073;-47
2022/04/22 02:31:03;;;;;;;10.32;3.90;;;;;;;6.77;100.00;100214.41;5097584;28;20562;-47
2022/04/22 02:33:28;;;;;;;10.45;2.88;;;;;;;6.73;100.00;100219.19;5096177;28;20027;-45
2022/04/22 02:35:54;;;;;;;7.78;3.63;;;;;;;6.72;100.00;100217.56;5098115;28;20047;-46
2022/04/22 02:38:19;;;;;;;5.07;2.35;;;;;;;6.69;100.00;100209.19;5111302;28;20023;-45
2022/04/22 02:46:13;;;;;;;13.43;3.33;;;;;;;6.69;100.00;100207.38;5102517;28;20069;-48
2022/04/22 02:48:38;;;;;;;6.20;2.42;;;;;;;6.70;100.00;100205.56;5107461;28;20085;-46
2022/04/22 02:51:03;;;;;;;7.50;3.63;;;;;;;6.72;100.00;100211.47;5105013;28;20043;-46
2022/04/22 02:53:28;;;;;;;11.07;4.80;;;;;;;6.70;100.00;100209.00;5105336;28;20028;-51
2022/04/22 02:55:55;;;;;;;8.48;3.78;;;;;;;6.72;100.00;100208.84;5101478;28;20020;-46
2022/04/22 02:58:20;;;;;;;11.85;4.90;;;;;;;6.71;100.00;100209.81;5104922;28;20035;-48
2022/04/22 03:00:46;;;;;;;10.15;5.03;;;;;;;6.71;100.00;100205.41;5106339;28;20066;-46
2022/04/22 03:03:11;;;;;;;8.38;3.80;;;;;;;6.75;100.00;100211.94;5098600;28;20023;-50
2022/04/22 03:05:37;;;;;;;6.47;3.58;;;;;;;6.77;100.00;100204.69;5101986;28;20293;-48
2022/04/22 03:08:03;;;;;;;5.13;3.60;;;;;;;6.77;100.00;100199.44;5099643;28;20118;-49
2022/04/22 03:10:29;;;;;;;8.95;3.13;;;;;;;6.78;100.00;100189.69;5111390;28;20023;-47
2022/04/22 03:12:55;;;;;;;9.27;4.10;;;;;;;6.78;100.00;100194.97;5105916;28;20027;-48
2022/04/22 03:15:20;;;;;;;8.68;3.70;;;;;;;6.81;100.00;100194.63;5101089;28;20182;-48
2022/04/22 03:17:46;;;;;;;7.63;4.38;;;;;;;6.81;100.00;100199.88;5080119;28;20116;-46
2022/04/22 03:20:12;;;;;;;11.02;3.92;;;;;;;6.81;100.00;100194.63;5108034;28;20046;-47
2022/04/22 03:22:37;;;;;;;6.97;3.58;;;;;;;6.78;100.00;100193.16;5095393;28;20380;-46
2022/04/22 03:25:03;;;;;;;10.30;5.47;;;;;;;6.76;100.00;100183.78;5104890;28;20038;-46
2022/04/22 03:27:28;;;;;;;7.53;4.00;;;;;;;6.76;100.00;100191.69;5103734;28;20096;-51
2022/04/22 03:29:53;;;;;;;9.30;5.05;;;;;;;6.74;100.00;100191.88;5106323;28;20024;-46
2022/04/22 03:32:19;;;;;;;8.88;4.57;;;;;;;6.72;100.00;100193.03;5098203;28;20024;-49
2022/04/22 03:34:44;;;;;;;10.43;4.10;;;;;;;6.69;100.00;100196.03;5096411;28;20028;-49
2022/04/22 03:37:09;;;;;;;9.98;4.45;;;;;;;6.66;100.00;100185.81;5102277;28;20074;-48
2022/04/22 03:39:35;;;;;;;7.38;4.57;;;;;;;6.65;100.00;100184.19;5095828;28;20035;-47
2022/04/22 03:42:01;;;;;;;4.75;3.90;;;;;;;6.65;100.00;100186.81;5106825;28;20027;-46
2022/04/22 03:44:26;;;;;;;11.75;5.63;;;;;;;6.64;100.00;100188.63;5094206;28;20032;-45
2022/04/22 03:46:52;;;;;;;10.68;4.75;;;;;;;6.60;100.00;100181.25;5097894;28;20031;-46
2022/04/22 03:49:17;;;;;;;7.80;4.90;;;;;;;6.55;100.00;100192.28;5101911;28;20134;-47
2022/04/22 03:51:42;;;;;;;8.98;4.13;;;;;;;6.57;100.00;100189.50;5101076;28;20032;-48
2022/04/22 03:54:08;;;;;;;12.43;4.30;;;;;;;6.57;100.00;100179.78;5105260;28;20032;-46
2022/04/22 03:59:17;;;;;;;6.28;4.80;;;;;;;6.64;100.00;100179.91;5102094;28;20099;-47
2022/04/22 04:01:43;;;;;;;10.00;5.13;;;;;;;6.70;100.00;100168.66;5105612;28;20035;-46
2022/04/22 04:04:09;;;;;;;7.93;5.57;;;;;;;6.74;100.00;100165.53;5074081;28;20110;-47
2022/04/22 04:06:35;;;;;;;7.47;4.55;;;;;;;6.77;100.00;100167.81;5096539;28;20515;-51
2022/04/22 04:17:17;;;;;;;6.15;4.60;;;;;;;6.92;100.00;100164.44;5102757;28;20043;-45
2022/04/22 04:25:10;;;;;;;11.48;4.97;;;;;;;6.93;100.00;100158.16;5099209;28;20043;-48
2022/04/22 04:27:39;;;;;;;22.73;5.95;;;;;;;6.94;100.00;100163.28;5113458;28;20023;-46
2022/04/22 04:30:06;;;;;;;8.25;4.60;;;;;;;6.93;100.00;100155.53;5095411;28;20499;-46
2022/04/22 04:32:31;;;;;;;8.65;5.25;;;;;;;6.89;100.00;100147.16;5105410;28;20391;-45
2022/04/22 04:34:57;;;;;;;11.10;4.10;;;;;;;6.89;100.00;100149.78;5094975;28;20042;-45
2022/04/22 04:37:22;;;;;;;6.90;3.97;;;;;;;6.91;100.00;100149.59;5101918;28;20034;-46
2022/04/22 04:39:47;;;;;;;6.72;3.53;;;;;;;6.90;100.00;100147.97;5101293;28;20027;-49
2022/04/22 04:42:13;;;;;;;10.55;4.25;;;;;;;6.91;100.00;100141.69;5104470;28;20039;-48
2022/04/22 04:44:38;;;;;;;11.93;4.78;;;;;;;6.93;100.00;100144.97;5106196;28;20024;-45
2022/04/22 04:47:04;;;;;;;6.80;4.95;;;;;;;6.94;100.00;100139.53;5108335;28;20056;-47
2022/04/22 04:49:29;;;;;;;17.38;5.68;;;;;;;6.98;100.00;100143.44;5102325;28;20592;-47
2022/04/22 04:51:55;;;;;;;6.07;3.80;;;;;;;7.01;100.00;100142.28;5096165;28;20579;-46
2022/04/22 04:54:20;;;;;;;7.93;4.70;;;;;;;7.03;100.00;100142.94;5098912;28;20493;-49
2022/04/22 04:56:46;;;;;;;11.48;6.07;;;;;;;7.05;100.00;100156.75;5101694;28;20027;-45
2022/04/22 04:59:11;;;;;;;13.85;6.00;;;;;;;7.07;100.00;100146.84;5101888;28;20113;-46
2022/04/22 05:01:37;;;;;;;12.20;5.35;;;;;;;7.12;100.00;100133.13;5109435;28;20468;-47
2022/04/22 05:04:03;;;;;;;18.42;5.57;;;;;;;7.16;100.00;100143.16;5098741;28;20028;-49
2022/04/22 05:06:28;;;;;;;9.55;4.93;;;;;;;7.21;100.00;100140.81;5087636;28;20067;-47
2022/04/22 05:08:54;;;;;;;11.55;5.15;;;;;;;7.29;100.00;100145.19;5092793;28;20368;-47
2022/04/22 05:11:19;;;;;;;11.02;5.00;;;;;;;7.32;100.00;100144.03;5114975;28;20107;-48
2022/04/22 05:13:45;;;;;;;15.75;7.47;;;;;;;7.35;100.00;100143.66;5109784;28;20552;-51
2022/04/22 05:16:10;;;;;;;11.65;6.30;;;;;;;7.40;100.00;100143.94;5105725;28;20028;-48
2022/04/22 05:18:36;;;;;;;19.73;5.40;;;;;;;7.43;100.00;100144.44;5077501;28;20489;-47
2022/04/22 05:21:01;;;;;;;12.23;5.68;;;;;;;7.46;100.00;100142.41;5094750;28;20035;-46
2022/04/22 05:23:27;;;;;;;6.88;5.18;;;;;;;7.48;100.00;100143.88;5096546;28;20016;-46
2022/04/22 05:25:53;;;;;;;7.97;4.85;;;;;;;7.50;100.00;100146.34;5101265;28;20035;-49
2022/04/22 05:28:18;;;;;;;15.40;6.63;;;;;;;7.52;100.00;100144.34;5099053;28;20032;-46
2022/04/22 05:33:27;;;;;;;11.77;7.72;;;;;;;7.58;100.00;100144.44;5102340;28;20062;-44
2022/04/22 05:35:53;;;;;;;13.30;6.45;;;;;;;7.59;100.00;100140.81;5101649;28;20035;-47
2022/04/22 05:38:22;;;;;;;10.35;5.25;;;;;;;7.61;100.00;100148.53;5097674;28;20053;-48
2022/04/22 05:40:48;;;;;;;15.65;7.85;;;;;;;7.61;100.00;100144.06;5102035;28;20132;-53
2022/04/22 05:43:14;;;;;;;11.57;6.43;;;;;;;7.64;100.00;100135.81;5107070;28;20066;-50
2022/04/22 05:45:39;;;;;;;11.10;5.93;;;;;;;7.68;100.00;100132.81;5099686;28;20114;-52
2022/04/22 05:48:06;;;;;;;11.27;5.85;;;;;;;7.71;100.00;100127.97;5107056;28;20063;-45
2022/04/22 05:50:31;;;;;;;17.00;7.80;;;;;;;7.74;100.00;100129.44;5105523;28;20024;-45
2022/04/22 05:52:57;;;;;;;17.05;7.47;;;;;;;7.75;100.00;100128.47;5096613;28;20047;-47
2022/04/22 05:55:24;;;;;;;12.70;7.40;;;;;;;7.77;100.00;100134.34;5107063;28;20031;-49
2022/04/22 05:57:52;;;;;;;17.92;7.20;;;;;;;7.80;100.00;100134.00;5105071;28;20043;-48
2022/04/22 06:00:19;;;;;;;11.30;5.88;;;;;;;7.83;100.00;100136.28;5108234;28;20089;-48
2022/04/22 06:02:45;;;;;;;12.50;7.38;;;;;;;7.86;100.00;100134.09;5096325;28;20032;-48
2022/04/22 06:05:12;;;;;;;15.02;6.80;;;;;;;7.91;100.00;100136.19;5099723;28;20487;-49
2022/04/22 06:07:38;;;;;;;16.70;7.45;;;;;;;7.96;100.00;100140.94;5092350;28;20440;-48
2022/04/22 06:12:48;;;;;;;15.60;6.43;;;;;;;8.04;100.00;100133.72;5100021;28;20069;-47
2022/04/22 06:15:14;;;;;;;14.00;8.60;;;;;;;8.09;100.00;100125.25;5105648;28;20023;-47
2022/04/22 06:17:39;;;;;;;13.88;7.10;;;;;;;8.15;100.00;100129.00;5096851;28;20023;-47
2022/04/22 06:20:05;;;;;;;16.50;7.18;;;;;;;8.17;100.00;100124.34;5099675;28;20122;-50
2022/04/22 06:22:31;;;;;;;12.98;6.60;;;;;;;8.20;100.00;100134.53;5101957;28;20060;-47
2022/04/22 06:24:56;;;;;;;16.92;6.80;;;;;;;8.24;100.00;100133.19;5101662;28;20067;-48
2022/04/22 06:27:34;;;;;;;16.73;6.82;;;;;;;8.29;100.00;100122.88;5097758;28;20258;-53
2022/04/22 06:30:05;;;;;;;18.27;7.22;;;;;;;8.32;100.00;100129.63;5103968;28;20027;-48
2022/04/22 06:32:30;;;;;;;12.32;7.13;;;;;;;8.38;100.00;100126.22;5105478;28;20027;-48
2022/04/22 06:34:56;;;;;;;17.92;7.75;;;;;;;8.42;100.00;100128.34;5101199;28;20105;-45
2022/04/22 06:37:22;;;;;;;18.88;7.88;;;;;;;8.49;100.00;100129.25;5093441;28;20027;-46
2022/04/22 06:45:46;;;;;;;18.90;8.35;;;;;;;8.57;100.00;100128.31;5099517;28;20063;-49
2022/04/22 06:48:05;;;;;;;11.02;6.45;;;;;;;8.77;100.00;100117.13;5097528;28;20104;-46
2022/04/22 06:50:31;;;;;;;14.82;6.88;;;;;;;8.84;100.00;100124.13;5096636;28;20034;-46
2022/04/22 06:52:56;;;;;;;15.65;6.45;;;;;;;8.88;100.00;100125.41;5084511;28;20035;-47
2022/04/22 06:55:22;;;;;;;16.60;9.38;;;;;;;8.92;100.00;100120.53;5101708;28;20113;-46
2022/04/22 06:57:49;;;;;;;12.55;7.03;;;;;;;8.93;100.00;100127.44;5094918;28;20117;-50
2022/04/22 07:00:15;;;;;;;15.55;7.40;;;;;;;9.00;100.00;100122.22;5097699;28;20019;-50
2022/04/22 07:02:41;;;;;;;15.07;6.88;;;;;;;9.03;100.00;100119.22;5101456;28;20103;-48
2022/04/22 07:05:07;;;;;;;12.60;5.75;;;;;;;9.12;100.00;100118.09;5100092;28;20110;-48
2022/04/22 07:07:33;;;;;;;12.68;7.85;;;;;;;9.26;100.00;100127.75;5096252;28;20023;-47
2022/04/22 07:09:58;;;;;;;10.10;5.70;;;;;;;9.47;100.00;100123.44;5102708;28;20030;-48
2022/04/22 07:12:27;;;;;;;10.18;6.38;;;;;;;9.60;100.00;100107.66;5100783;28;20027;-47
2022/04/22 07:15:03;;;;;;;13.93;6.32;;;;;;;9.69;100.00;100110.97;5097964;28;20051;-51
2022/04/22 07:17:30;;;;;;;12.45;6.15;;;;;;;9.77;100.00;100108.97;5085719;28;20028;-48
2022/04/22 07:19:56;;;;;;;15.15;7.25;;;;;;;9.73;100.00;100097.16;5094656;28;20066;-49
2022/04/22 07:22:21;;;;;;;10.77;6.45;;;;;;;9.73;100.00;100104.25;5099579;28;20112;-49
2022/04/22 07:24:47;;;;;;;22.92;9.48;;;;;;;9.74;100.00;100097.97;5085096;28;20019;-48
2022/04/22 07:27:14;;;;;;;15.32;7.43;;;;;;;9.75;100.00;100102.25;5098939;28;20107;-48
2022/04/22 07:29:41;;;;;;;18.40;6.82;;;;;;;9.74;100.00;100098.78;5103173;28;20034;-51
2022/04/22 07:32:08;;;;;;;15.38;7.15;;;;;;;9.78;100.00;100093.91;5097892;28;20579;-46
2022/04/22 07:34:33;;;;;;;13.80;6.35;;;;;;;9.78;100.00;100105.34;5094291;28;20032;-49
2022/04/22 07:36:58;;;;;;;8.88;5.07;;;;;;;9.79;100.00;100098.22;5096755;28;20144;-47
2022/04/22 07:39:24;;;;;;;15.20;6.70;;;;;;;9.83;100.00;100092.34;5098148;28;20087;-46
2022/04/22 07:41:51;;;;;;;17.42;7.65;;;;;;;9.96;100.00;100102.16;5099967;28;20023;-51
2022/04/22 07:47:08;;;;;;;11.57;7.25;;;;;;;10.15;100.00;100082.09;5102584;28;20055;-51
2022/04/22 07:49:34;;;;;;;12.20;6.18;;;;;;;10.28;100.00;100080.53;5107140;28;20031;-49
2022/04/22 07:51:59;;;;;;;16.50;6.28;;;;;;;10.39;100.00;100082.59;5106981;28;20456;-51
2022/04/22 07:54:24;;;;;;;13.63;7.38;;;;;;;10.41;100.00;100083.22;5101249;28;20023;-51
2022/04/22 07:56:50;;;;;;;16.10;8.63;;;;;;;10.42;100.00;100077.72;5097586;28;21122;-53
2022/04/22 07:59:15;;;;;;;14.32;6.72;;;;;;;10.41;100.00;100085.88;5090411;28;20048;-49
2022/04/22 08:01:40;;;;;;;13.80;7.68;;;;;;;10.45;100.00;100089.75;5097182;28;20020;-47
2022/04/22 08:04:06;;;;;;;14.02;7.18;;;;;;;10.48;100.00;100090.19;5097909;28;20381;-48
2022/04/22 08:06:32;;;;;;;13.57;7.38;;;;;;;10.50;100.00;100089.16;5099560;28;20098;-46
2022/04/22 08:08:58;;;;;;;13.38;6.47;;;;;;;10.55;100.00;100074.28;5098913;28;20075;-50
2022/04/22 08:11:23;;;;;;;14.40;6.43;;;;;;;10.65;100.00;100082.66;5098232;28;20392;-48
2022/04/22 08:13:49;;;;;;;10.18;6.68;;;;;;;10.73;100.00;100080.84;5104229;28;20369;-45
2022/04/22 08:16:14;;;;;;;13.77;6.38;;;;;;;10.91;100.00;100078.41;5090610;28;20123;-46
2022/04/22 08:18:39;;;;;;;10.55;5.90;;;;;;;11.02;100.00;100064.56;5097140;28;20085;-49
2022/04/22 08:21:07;;;;;;;10.48;6.03;;;;;;;11.09;100.00;100067.19;5094040;28;20044;-49
2022/04/22 08:23:32;;;;;;;13.43;6.50;;;;;;;11.23;100.00;100065.34;5104301;28;20464;-47
2022/04/22 08:25:58;;;;;;;11.40;4.75;;;;;;;11.45;100.00;100058.81;5092004;28;20089;-50
2022/04/22 08:28:23;;;;;;;12.05;5.18;;;;;;;11.63;100.00;100065.31;5110444;28;20561;-47
2022/04/22 08:30:48;;;;;;;7.93;4.78;;;;;;;11.96;100.00;100058.09;5080460;28;20034;-50
2022/04/22 08:33:14;;;;;;;7.35;5.03;;;;;;;12.02;100.00;100064.38;5101637;28;20034;-51
2022/04/22 08:35:39;;;;;;;13.82;4.85;;;;;;;11.83;100.00;100060.75;5100509;28;20144;-54
2022/04/22 08:38:06;;;;;;;7.55;4.35;;;;;;;11.56;100.00;100067.97;5096852;28;20087;-49
2022/04/22 08:40:35;;;;;;;10.77;5.50;;;;;;;11.37;100.00;100058.22;5085126;28;20101;-47
2022/04/22 08:43:01;;;;;;;10.25;4.80;;;;;;;11.21;100.00;100070.06;5088772;28;20503;-48
2022/04/22 08:45:28;;;;;;;10.27;5.72;;;;;;;11.13;100.00;100063.94;5092019;28;20040;-50
2022/04/22 08:50:41;;;;;;;20.08;8.20;;;;;;;11.26;100.00;100065.78;5098750;28;20049;-47
2022/04/22 08:53:11;;;;;;;11.45;6.13;;;;;;;11.36;100.00;100060.06;5091911;28;20028;-46
2022/04/22 08:55:37;;;;;;;9.13;4.90;;;;;;;11.44;100.00;100064.34;5102113;28;20142;-51
2022/04/22 08:58:05;;;;;;;10.45;5.13;;;;;;;11.28;100.00;100062.91;5094063;28;20444;-47
2022/04/22 09:00:34;;;;;;;16.20;5.32;;;;;;;11.09;100.00;100062.72;5091819;28;20031;-46
2022/04/22 09:03:00;;;;;;;9.95;4.35;;;;;;;11.03;100.00;100050.28;5089361;28;20058;-50
2022/04/22 09:05:26;;;;;;;8.38;4.20;;;;;;;11.10;100.00;100055.56;5097984;28;20031;-49
2022/04/22 09:07:53;;;;;;;9.50;5.05;;;;;;;11.25;100.00;100052.69;5088551;28;20377;-50
2022/04/22 09:10:18;;;;;;;9.82;4.50;;;;;;;11.38;100.00;100050.03;5097679;28;20506;-49
2022/04/22 09:12:55;;;;;;;9.52;4.32;;;;;;;11.66;100.00;100039.13;5093067;28;20119;-48
2022/04/22 09:15:22;;;;;;;7.85;3.38;;;;;;;11.83;100.00;100050.13;5089158;28;20115;-47
2022/04/22 09:17:48;;;;;;;10.45;4.20;;;;;;;12.00;100.00;100038.06;5095699;28;20373;-48
2022/04/22 09:20:15;;;;;;;10.25;4.05;;;;;;;11.96;100.00;100031.50;5096292;28;20038;-45
2022/04/22 09:22:41;;;;;;;9.65;3.75;;;;;;;11.90;100.00;100034.19;5094573;28;20024;-45
2022/04/22 09:25:06;;;;;;;11.57;4.45;;;;;;;11.85;100.00;100036.63;5100334;28;20024;-50
2022/04/22 09:27:36;;;;;;;7.13;4.57;;;;;;;11.66;100.00;100038.34;5099221;28;20532;-48
2022/04/22 09:30:07;;;;;;;10.77;4.40;;;;;;;11.63;100.00;100036.09;5098513;28;20035;-46
2022/04/22 09:32:35;;;;;;;6.95;4.07;;;;;;;11.70;100.00;100040.38;5102554;28;20074;-50
2022/04/22 09:35:16;;;;;;;5.97;3.83;;;;;;;11.68;100.00;100044.25;5107576;27;20060;-48
2022/04/22 09:43:35;;;;;;;8.18;3.75;;;;;;;11.66;100.00;100046.28;5103168;28;20043;-46
2022/04/22 09:46:02;;;;;;;11.07;4.80;;;;;;;11.63;100.00;100044.88;5094569;28;20507;-47
2022/04/22 09:48:40;;;;;;;6.38;3.15;;;;;;;11.66;100.00;100041.00;5102093;28;20457;-49
2022/04/22 09:51:18;;;;;;;7.25;3.55;;;;;;;11.65;100.00;100039.38;5093653;28;20039;-48
2022/04/22 09:53:44;;;;;;;11.27;3.30;;;;;;;11.60;100.00;100039.19;5093780;28;20084;-47
2022/04/22 09:56:09;;;;;;;4.68;3.63;;;;;;;11.58;100.00;100040.19;5100195;28;20027;-49
2022/04/22 09:58:36;;;;;;;10.43;3.78;;;;;;;11.57;100.00;100038.56;5107376;28;20106;-46
2022/04/22 10:01:06;;;;;;;9.82;3.30;;;;;;;11.57;100.00;100041.22;5087298;28;20051;-47
2022/04/22 10:03:36;;;;;;;5.25;3.65;;;;;;;11.56;100.00;100044.91;5093922;28;20489;-48
2022/04/22 10:06:02;;;;;;;4.35;3.10;;;;;;;11.63;100.00;100044.88;5104404;28;20042;-46
2022/04/22 10:08:34;;;;;;;8.75;3.47;;;;;;;11.66;100.00;100033.03;5099171;28;20030;-51
2022/04/22 10:11:00;;;;;;;11.40;3.28;;;;;;;11.66;100.00;100031.19;5097827;28;20576;-47
2022/04/22 10:13:34;;;;;;;12.93;3.83;;;;;;;11.62;100.00;100026.50;5104166;28;20645;-50
2022/04/22 10:16:02;;;;;;;8.00;3.25;;;;;;;11.54;100.00;100032.88;5102409;28;20035;-48
2022/04/22 10:18:29;;;;;;;6.22;2.58;;;;;;;11.60;100.00;100028.56;5106724;28;20494;-51
2022/04/22 10:20:54;;;;;;;5.50;2.72;;;;;;;11.72;100.00;100027.69;5104446;28;20035;-50
2022/04/22 10:23:20;;;;;;;6.10;3.78;;;;;;;11.84;100.00;100030.50;5099975;28;20385;-52
2022/04/22 10:25:45;;;;;;;3.85;2.80;;;;;;;12.02;100.00;100021.06;5107958;28;20115;-49
2022/04/22 10:28:12;;;;;;;8.48;4.13;;;;;;;12.20;100.00;100023.84;5102518;28;20572;-47
2022/04/22 10:30:40;;;;;;;7.00;3.65;;;;;;;12.37;100.00;100022.31;5099589;28;20019;-49
2022/04/22 10:33:07;;;;;;;7.38;3.53;;;;;;;12.62;100.00;100017.06;5095221;28;20042;-47
2022/04/22 10:35:44;;;;;;;5.93;2.78;;;;;;;12.83;100.00;100013.19;5101070;28;20059;-50
2022/04/22 10:38:40;;;;;;;9.63;3.00;;;;;;;12.76;100.00;100006.31;5095441;28;20032;-49
2022/04/22 10:41:18;;;;;;;5.72;3.10;;;;;;;12.75;100.00;100004.66;5083040;28;20089;-48
2022/04/22 10:49:40;;;;;;;3.97;2.30;;;;;;;12.29;100.00;100005.78;5106132;28;20069;-47
2022/04/22 10:52:13;;;;;;;5.50;3.17;;;;;;;12.25;100.00;100005.41;5105779;28;20663;-45
2022/04/22 10:54:51;;;;;;;5.65;3.15;;;;;;;12.24;100.00;100001.13;5099673;28;20031;-47
2022/04/22 10:57:20;;;;;;;6.93;3.17;;;;;;;12.15;100.00;100005.88;5097566;28;20028;-47
2022/04/22 11:00:00;;;;;;;7.60;3.67;;;;;;;12.12;100.00;100000.97;5103851;28;20051;-46
2022/04/22 11:02:28;;;;;;;6.75;3.63;;;;;;;12.11;100.00;100003.88;5101607;28;20036;-49
2022/04/22 11:05:19;;;;;;;8.95;2.75;;;;;;;12.13;100.00;99999.13;5099311;28;20111;-51
2022/04/22 11:07:51;;;;;;;14.02;3.90;;;;;;;12.27;100.00;99992.72;5061801;28;20048;-51
2022/04/22 11:10:26;;;;;;;7.57;3.15;;;;;;;12.43;100.00;99986.06;5091039;28;20032;-47
2022/04/22 11:13:01;;;;;;;4.55;2.67;;;;;;;12.63;100.00;99991.25;5102071;28;20032;-46
2022/04/22 11:15:42;;;;;;;3.47;2.55;;;;;;;13.24;100.00;99992.34;5100416;28;20119;-51
2022/04/22 11:18:08;;;;;;;7.03;3.83;;;;;;;13.43;100.00;99980.72;5101080;28;20225;-46
2022/04/22 11:20:38;;;;;;;9.07;3.58;;;;;;;13.45;100.00;99975.16;5099681;28;20038;-47
2022/04/22 11:23:05;;;;;;;5.03;2.53;;;;;;;13.44;100.00;99978.88;5102092;28;20027;-46
2022/04/22 11:25:31;;;;;;;4.60;2.40;;;;;;;13.46;100.00;99974.94;5101603;28;20031;-47
2022/04/22 11:27:58;;;;;;;6.80;2.53;;;;;;;13.53;100.00;99973.03;5098008;28;20506;-46
2022/04/22 11:30:26;;;;;;;3.35;2.90;;;;;;;13.52;100.00;99968.72;5088678;28;20055;-49
2022/04/22 11:33:02;;;;;;;4.65;2.60;;;;;;;13.84;100.00;99971.22;5099198;28;20489;-45
2022/04/22 11:35:33;;;;;;;4.25;3.05;;;;;;;14.63;100.00;99960.47;5095126;28;20059;-47
2022/04/22 11:38:04;;;;;;;7.63;3.55;;;;;;;15.09;100.00;99960.72;5094397;28;20039;-46
2022/04/22 11:40:35;;;;;;;5.15;2.80;;;;;;;15.24;100.00;99955.72;5087368;28;20563;-48
2022/04/22 11:43:08;;;;;;;4.65;2.38;;;;;;;15.47;100.00;99947.66;5096183;28;20038;-46
2022/04/22 11:45:45;;;;;;;2.22;1.83;;;;;;;15.87;100.00;99948.72;5100154;28;20035;-46
2022/04/22 11:48:12;;;;;;;7.80;4.20;;;;;;;15.62;100.00;99955.19;5095106;28;20035;-47
2022/04/22 11:50:42;;;;;;;5.75;2.58;;;;;;;15.07;100.00;99941.44;5094930;28;20038;-49
2022/04/22 11:53:14;;;;;;;3.38;2.05;;;;;;;14.87;100.00;99966.66;5097734;28;20043;-46
2022/04/22 11:55:43;;;;;;;5.95;2.80;;;;;;;14.73;100.00;99958.03;5096938;28;20050;-49
2022/04/22 11:58:13;;;;;;;7.25;2.40;;;;;;;14.63;100.00;99963.13;5092544;28;20187;-52
2022/04/22 12:06:15;;;;;;;7.20;2.00;;;;;;;14.33;100.00;99942.66;5095656;28;20046;-47
2022/04/22 12:09:03;;;;;;;1.98;1.48;;;;;;;14.52;100.00;99955.91;5096596;28;20119;-47
2022/04/22 12:11:29;;;;;;;3.75;1.30;;;;;;;14.66;100.00;99943.19;5099185;28;20442;-46
2022/04/22 12:13:55;;;;;;;4.07;2.28;;;;;;;14.76;100.00;99946.91;5087556;28;20036;-49
2022/04/22 12:16:28;;;;;;;6.50;2.88;;;;;;;14.73;100.00;99942.03;5090556;28;20137;-46
2022/04/22 12:18:55;;;;;;;3.28;2.58;;;;;;;14.57;100.00;99943.53;5096936;28;20156;-48
2022/04/22 12:21:22;;;;;;;3.47;1.92;;;;;;;14.48;100.00;99933.38;5094602;28;20038;-49